createdAt,value
2018-07-11T00:01:24.043Z,72.28
2018-07-11T00:03:54.492Z,71.97
2018-07-11T00:06:25.228Z,72.00
2018-07-11T00:08:54.790Z,71.98
2018-07-11T00:11:24.235Z,71.08
2018-07-11T00:13:54.438Z,70.91
2018-07-11T00:16:23.908Z,71.06
2018-07-11T00:18:53.789Z,70.93
2018-07-11T00:21:23.304Z,71.84
2018-07-11T00:23:52.776Z,72.88
2018-07-11T00:26:22.280Z,72.13
2018-07-11T00:28:51.818Z,72.17
2018-07-11T00:31:21.644Z,71.98
2018-07-11T00:33:51.122Z,72.16
2018-07-11T00:36:20.612Z,71.81
2018-07-11T00:38:50.080Z,71.60
2018-07-11T00:41:19.565Z,71.74
2018-07-11T00:43:49.211Z,70.10
2018-07-11T00:46:19.304Z,71.05
2018-07-11T00:48:49.313Z,70.89
2018-07-11T00:51:18.858Z,70.94
2018-07-11T00:53:49.083Z,71.79
2018-07-11T00:56:18.609Z,72.07
2018-07-11T00:58:57.335Z,72.08
2018-07-11T01:01:26.951Z,71.99
2018-07-11T01:04:00.209Z,72.09
2018-07-11T01:06:29.736Z,72.34
2018-07-11T01:09:00.079Z,71.00
2018-07-11T01:11:37.071Z,71.15
2018-07-11T01:14:06.619Z,70.71
2018-07-11T01:16:36.090Z,71.53
2018-07-11T01:19:09.203Z,71.51
2018-07-11T01:21:39.343Z,70.97
2018-07-11T01:24:08.958Z,71.11
2018-07-11T01:26:39.724Z,71.49
2018-07-11T01:29:09.870Z,71.29
2018-07-11T01:31:39.722Z,71.38
2018-07-11T01:34:09.645Z,71.34
2018-07-11T01:36:39.115Z,71.01
2018-07-11T01:39:08.318Z,70.49
2018-07-11T01:41:37.831Z,70.75
2018-07-11T01:44:07.510Z,70.91
2018-07-11T01:46:50.843Z,71.49
2018-07-11T01:49:20.322Z,72.56
2018-07-11T01:52:06.704Z,73.00
2018-07-11T01:54:36.929Z,72.38
2018-07-11T01:57:06.449Z,72.58
2018-07-11T01:59:37.639Z,72.14
2018-07-11T02:02:07.184Z,73.39
2018-07-11T02:04:40.031Z,73.27
2018-07-11T02:07:10.640Z,73.42
2018-07-11T02:09:40.438Z,73.00
2018-07-11T02:12:09.953Z,72.02
2018-07-11T02:14:39.611Z,72.44
2018-07-11T02:17:09.054Z,72.03
2018-07-11T02:19:39.043Z,72.28
2018-07-11T02:22:08.327Z,72.12
2018-07-11T02:24:37.849Z,72.58
2018-07-11T02:27:07.845Z,72.60
2018-07-11T02:29:37.502Z,72.27
2018-07-11T02:32:07.114Z,72.10
2018-07-11T02:34:36.597Z,72.07
2018-07-11T02:37:06.454Z,72.37
2018-07-11T02:39:35.939Z,72.43
2018-07-11T02:42:05.758Z,72.68
2018-07-11T02:44:35.305Z,72.04
2018-07-11T02:47:10.062Z,72.74
2018-07-11T02:49:39.591Z,72.88
2018-07-11T02:52:09.418Z,73.29
2018-07-11T02:54:39.193Z,73.14
2018-07-11T02:57:08.712Z,72.94
2018-07-11T02:59:38.230Z,73.15
2018-07-11T03:02:07.784Z,73.00
2018-07-11T03:04:37.444Z,72.74
2018-07-11T03:07:07.873Z,72.12
2018-07-11T03:09:37.446Z,71.84
2018-07-11T03:12:07.593Z,71.46
2018-07-11T03:14:42.961Z,71.36
2018-07-11T03:17:12.520Z,71.30
2018-07-11T03:19:41.988Z,71.82
2018-07-11T03:22:11.547Z,71.37
2018-07-11T03:24:41.294Z,72.27
2018-07-11T03:27:10.743Z,72.86
2018-07-11T03:29:40.304Z,71.67
2018-07-11T03:32:09.866Z,71.91
2018-07-11T03:34:39.397Z,71.62
2018-07-11T03:37:08.896Z,72.39
2018-07-11T03:39:40.218Z,72.22
2018-07-11T03:42:09.768Z,72.02
2018-07-11T03:44:39.278Z,72.48
2018-07-11T03:47:08.740Z,71.87
2018-07-11T03:49:38.923Z,72.10
2018-07-11T03:52:08.500Z,71.84
2018-07-11T03:54:38.296Z,71.83
2018-07-11T03:57:08.175Z,72.05
2018-07-11T03:59:37.734Z,71.22
2018-07-11T04:02:07.890Z,70.44
2018-07-11T04:04:37.583Z,70.87
2018-07-11T04:07:07.032Z,71.40
2018-07-11T04:09:36.782Z,71.09
2018-07-11T04:12:06.294Z,71.14
2018-07-11T04:14:35.804Z,71.08
2018-07-11T04:17:05.330Z,70.84
2018-07-11T04:19:34.812Z,70.50
2018-07-11T04:22:04.256Z,70.17
2018-07-11T04:24:33.826Z,70.22
2018-07-11T04:27:03.324Z,69.96
2018-07-11T04:29:32.786Z,70.02
2018-07-11T04:32:02.265Z,69.92
2018-07-11T04:34:31.786Z,69.18
2018-07-11T04:37:01.217Z,69.42
2018-07-11T04:39:30.744Z,69.35
2018-07-11T04:42:00.255Z,68.90
2018-07-11T04:44:29.981Z,68.66
2018-07-11T04:46:59.448Z,69.20
2018-07-11T04:49:28.938Z,68.28
2018-07-11T04:51:58.112Z,68.19
2018-07-11T04:54:28.406Z,67.37
2018-07-11T04:56:58.010Z,67.50
2018-07-11T04:59:27.519Z,67.01
2018-07-11T05:01:56.994Z,67.88
2018-07-11T05:04:26.495Z,67.96
2018-07-11T05:06:55.935Z,66.76
2018-07-11T05:09:25.446Z,67.12
2018-07-11T05:11:55.003Z,68.04
2018-07-11T05:14:24.515Z,67.59
2018-07-11T05:16:54.022Z,68.11
2018-07-11T05:19:23.620Z,67.98
2018-07-11T05:21:53.244Z,66.81
2018-07-11T05:24:22.730Z,68.15
2018-07-11T05:26:52.244Z,66.96
2018-07-11T05:29:21.808Z,66.63
2018-07-11T05:31:51.310Z,67.38
2018-07-11T05:34:21.000Z,66.60
2018-07-11T05:36:50.501Z,66.61
2018-07-11T05:39:19.971Z,65.76
2018-07-11T05:41:49.479Z,66.55
2018-07-11T05:44:18.940Z,66.35
2018-07-11T05:46:48.420Z,65.91
2018-07-11T05:49:17.872Z,66.18
2018-07-11T05:51:47.345Z,66.03
2018-07-11T05:54:17.454Z,66.69
2018-07-11T05:56:49.159Z,66.81
2018-07-11T05:59:18.781Z,66.10
2018-07-11T06:01:48.304Z,63.87
2018-07-11T06:04:17.845Z,64.74
2018-07-11T06:06:47.380Z,64.59
2018-07-11T06:09:17.274Z,64.16
2018-07-11T06:11:46.777Z,63.79
2018-07-11T06:14:16.181Z,63.44
2018-07-11T06:16:45.571Z,59.69
2018-07-11T06:19:15.072Z,53.51
2018-07-11T06:21:47.874Z,44.29
2018-07-11T06:24:17.912Z,37.44
2018-07-11T06:26:47.418Z,33.16
2018-07-11T06:29:16.933Z,30.14
2018-07-11T06:31:46.350Z,27.92
2018-07-11T06:34:16.351Z,27.51
2018-07-11T06:36:45.822Z,24.78
2018-07-11T06:39:15.060Z,23.77
2018-07-11T06:41:44.470Z,22.06
2018-07-11T06:44:13.915Z,22.19
2018-07-11T06:46:43.376Z,20.85
2018-07-11T06:49:12.778Z,19.56
2018-07-11T06:51:42.361Z,18.56
2018-07-11T06:54:11.850Z,24.46
2018-07-11T06:56:41.420Z,29.75
2018-07-11T06:59:10.876Z,33.07
2018-07-11T07:01:40.302Z,32.22
2018-07-11T07:04:10.537Z,29.95
2018-07-11T07:06:39.957Z,25.22
2018-07-11T07:09:09.356Z,20.37
2018-07-11T07:11:38.946Z,16.97
2018-07-11T07:14:08.429Z,14.22
2018-07-11T07:16:38.004Z,13.46
2018-07-11T07:19:07.353Z,12.29
2018-07-11T07:21:37.802Z,12.86
2018-07-11T07:24:09.044Z,11.85
2018-07-11T07:26:38.452Z,10.61
2018-07-11T07:29:07.877Z,9.50
2018-07-11T07:31:37.291Z,7.95
2018-07-11T07:34:06.549Z,9.39
2018-07-11T07:36:36.108Z,8.27
2018-07-11T07:39:05.873Z,7.90
2018-07-11T07:41:35.616Z,7.72
2018-07-11T07:44:05.084Z,7.75
2018-07-11T07:46:34.525Z,8.02
2018-07-11T07:49:03.983Z,8.92
2018-07-11T07:51:33.614Z,7.79
2018-07-11T07:54:03.034Z,8.98
2018-07-11T07:56:32.445Z,14.05
2018-07-11T07:59:02.121Z,17.99
2018-07-11T08:01:31.603Z,20.71
2018-07-11T08:04:01.012Z,23.24
2018-07-11T08:06:30.438Z,24.04
2018-07-11T08:08:59.940Z,24.31
2018-07-11T08:11:29.410Z,25.59
2018-07-11T08:13:58.829Z,26.84
2018-07-11T08:16:28.268Z,27.31
2018-07-11T08:18:57.730Z,27.39
2018-07-11T08:21:27.216Z,27.73
2018-07-11T08:24:13.852Z,27.31
2018-07-11T08:27:01.938Z,27.85
2018-07-11T08:29:48.524Z,26.72
2018-07-11T08:33:35.825Z,26.46
2018-07-11T08:36:35.767Z,25.55
2018-07-11T08:39:38.375Z,24.52
2018-07-11T08:44:48.557Z,23.85
2018-07-11T08:47:39.039Z,23.88
2018-07-11T08:50:36.022Z,24.54
2018-07-11T08:55:42.383Z,24.75
2018-07-11T09:00:43.090Z,24.42
2018-07-11T09:03:54.356Z,24.29
2018-07-11T09:06:39.140Z,23.91
2018-07-11T09:09:56.342Z,25.18
2018-07-11T09:14:46.542Z,26.12
2018-07-11T09:19:04.858Z,26.81
2018-07-11T09:24:11.990Z,27.98
2018-07-11T09:26:41.375Z,28.77
